createdAt,value
2018-08-06T00:00:11.727Z,4.62
2018-08-06T00:02:41.893Z,4.72
2018-08-06T00:05:11.471Z,5.10
2018-08-06T00:07:40.840Z,4.62
2018-08-06T00:10:11.150Z,4.28
2018-08-06T00:12:41.226Z,4.78
2018-08-06T00:15:10.610Z,4.55
2018-08-06T00:17:40.140Z,4.53
2018-08-06T00:20:09.840Z,4.65
2018-08-06T00:22:39.604Z,4.30
2018-08-06T00:25:09.728Z,4.22
2018-08-06T00:27:39.220Z,4.40
2018-08-06T00:30:08.783Z,6.05
2018-08-06T00:32:38.183Z,4.57
2018-08-06T00:35:07.655Z,4.35
2018-08-06T00:37:37.160Z,4.47
2018-08-06T00:40:06.964Z,4.12
2018-08-06T00:42:37.065Z,4.37
2018-08-06T00:45:07.877Z,4.47
2018-08-06T00:47:37.615Z,4.53
2018-08-06T00:50:07.401Z,4.40
2018-08-06T00:52:36.910Z,4.37
2018-08-06T00:55:06.471Z,4.05
2018-08-06T00:57:35.992Z,4.18
2018-08-06T01:00:06.881Z,5.00
2018-08-06T01:02:38.592Z,4.15
2018-08-06T01:05:08.411Z,4.20
2018-08-06T01:07:37.669Z,4.03
2018-08-06T01:10:08.318Z,3.97
2018-08-06T01:12:39.439Z,4.50
2018-08-06T01:15:09.441Z,4.12
2018-08-06T01:17:38.945Z,4.65
2018-08-06T01:20:08.474Z,4.03
2018-08-06T01:22:37.802Z,4.37
2018-08-06T01:25:07.529Z,4.22
2018-08-06T01:27:37.161Z,4.35
2018-08-06T01:30:06.920Z,4.22
2018-08-06T01:32:36.253Z,4.40
2018-08-06T01:35:06.047Z,4.00
2018-08-06T01:37:36.260Z,3.72
2018-08-06T01:40:05.919Z,4.10
2018-08-06T01:42:35.588Z,4.22
2018-08-06T01:45:05.256Z,4.50
2018-08-06T01:47:34.782Z,4.10
2018-08-06T01:50:05.652Z,3.80
2018-08-06T01:52:35.908Z,4.18
2018-08-06T01:55:06.593Z,3.90
2018-08-06T01:57:36.120Z,3.78
2018-08-06T02:00:07.111Z,3.50
2018-08-06T02:02:36.896Z,3.80
2018-08-06T02:05:06.276Z,3.72
2018-08-06T02:07:35.659Z,4.00
2018-08-06T02:10:05.607Z,3.65
2018-08-06T02:12:36.802Z,3.92
2018-08-06T02:15:06.648Z,4.70
2018-08-06T02:17:37.448Z,14.50
2018-08-06T02:20:06.873Z,8.18
2018-08-06T02:22:37.759Z,9.05
2018-08-06T02:25:07.104Z,4.30
2018-08-06T02:27:36.827Z,4.00
2018-08-06T02:30:06.423Z,3.78
2018-08-06T02:32:36.876Z,4.32
2018-08-06T02:35:06.861Z,4.30
2018-08-06T02:37:36.305Z,4.03
2018-08-06T02:40:06.298Z,4.15
2018-08-06T02:42:35.753Z,3.90
2018-08-06T02:45:05.760Z,3.60
2018-08-06T02:47:35.681Z,3.60
2018-08-06T02:50:05.660Z,4.10
2018-08-06T02:52:36.373Z,3.97
2018-08-06T02:55:06.108Z,3.72
2018-08-06T02:57:35.774Z,3.60
2018-08-06T03:00:06.052Z,3.58
2018-08-06T03:02:35.749Z,3.22
2018-08-06T03:05:08.612Z,3.80
2018-08-06T03:07:38.240Z,3.58
2018-08-06T03:10:07.781Z,3.37
2018-08-06T03:12:37.567Z,3.45
2018-08-06T03:15:06.871Z,3.35
2018-08-06T03:17:36.264Z,2.97
2018-08-06T03:20:07.919Z,3.33
2018-08-06T03:22:37.243Z,3.50
2018-08-06T03:25:07.080Z,3.35
2018-08-06T03:27:36.838Z,3.20
2018-08-06T03:30:06.215Z,3.17
2018-08-06T03:32:35.762Z,3.47
2018-08-06T03:35:05.469Z,3.40
2018-08-06T03:39:56.564Z,3.33
2018-08-06T03:42:27.955Z,2.95
2018-08-06T03:44:59.140Z,3.15
2018-08-06T03:47:29.747Z,3.28
2018-08-06T03:50:00.318Z,3.25
2018-08-06T03:52:29.613Z,3.65
2018-08-06T03:55:00.237Z,3.42
2018-08-06T03:57:29.748Z,3.28
2018-08-06T04:00:00.199Z,2.90
2018-08-06T04:02:29.793Z,4.10
2018-08-06T04:05:01.207Z,3.35
2018-08-06T04:07:32.665Z,3.47
2018-08-06T04:10:02.448Z,3.70
2018-08-06T04:12:32.163Z,3.37
2018-08-06T04:15:02.346Z,3.30
2018-08-06T04:17:31.844Z,3.30
2018-08-06T04:20:03.007Z,2.95
2018-08-06T04:22:32.736Z,3.05
2018-08-06T04:25:02.045Z,3.47
2018-08-06T04:27:31.616Z,3.08
2018-08-06T04:30:01.241Z,3.17
2018-08-06T04:32:31.746Z,3.37
2018-08-06T04:35:01.347Z,3.35
2018-08-06T04:37:30.852Z,3.10
2018-08-06T04:40:00.146Z,3.40
2018-08-06T04:42:30.714Z,3.53
2018-08-06T04:45:00.270Z,3.58
2018-08-06T04:47:29.889Z,3.47
2018-08-06T04:49:59.301Z,3.70
2018-08-06T04:52:29.661Z,3.58
2018-08-06T04:54:59.973Z,3.85
2018-08-06T04:57:29.602Z,3.90
2018-08-06T04:59:59.544Z,4.07
2018-08-06T05:02:29.044Z,4.30
2018-08-06T05:04:59.122Z,3.95
2018-08-06T05:07:29.787Z,4.00
2018-08-06T05:09:59.353Z,3.95
2018-08-06T05:12:28.972Z,3.85
2018-08-06T05:14:58.990Z,4.43
2018-08-06T05:17:28.875Z,4.10
2018-08-06T05:19:58.395Z,4.15
2018-08-06T05:22:28.208Z,4.87
2018-08-06T05:24:58.371Z,4.10
2018-08-06T05:27:28.818Z,4.25
2018-08-06T05:29:59.661Z,4.00
2018-08-06T05:32:29.263Z,4.10
2018-08-06T05:34:58.912Z,4.18
2018-08-06T05:37:29.528Z,6.53
2018-08-06T05:39:59.164Z,4.10
2018-08-06T05:42:30.041Z,4.07
2018-08-06T05:44:59.261Z,4.20
2018-08-06T05:47:28.628Z,4.20
2018-08-06T05:49:58.741Z,4.07
2018-08-06T05:52:28.181Z,4.20
2018-08-06T05:54:58.967Z,4.45
2018-08-06T05:57:29.483Z,4.68
2018-08-06T05:59:58.953Z,4.65
2018-08-06T06:02:32.134Z,4.05
2018-08-06T06:05:01.582Z,4.50
2018-08-06T06:07:32.021Z,4.00
2018-08-06T06:10:01.579Z,4.00
2018-08-06T06:12:31.520Z,4.20
2018-08-06T06:15:01.965Z,4.07
2018-08-06T06:17:31.129Z,3.85
2018-08-06T06:20:00.341Z,4.07
2018-08-06T06:22:30.086Z,4.28
2018-08-06T06:25:00.929Z,4.25
2018-08-06T06:27:30.476Z,4.70
2018-08-06T06:29:59.864Z,4.50
2018-08-06T06:32:29.508Z,4.43
2018-08-06T06:34:59.655Z,4.30
2018-08-06T06:37:29.234Z,3.97
2018-08-06T06:39:59.232Z,3.85
2018-08-06T06:42:30.128Z,4.45
2018-08-06T06:44:59.979Z,4.32
2018-08-06T06:47:29.513Z,3.90
2018-08-06T06:50:00.147Z,3.95
2018-08-06T06:52:29.764Z,3.97
2018-08-06T06:54:59.323Z,4.03
2018-08-06T06:57:28.837Z,4.45
2018-08-06T06:59:59.512Z,3.70
2018-08-06T07:02:30.057Z,4.05
2018-08-06T07:05:00.485Z,4.15
2018-08-06T07:07:30.153Z,4.12
2018-08-06T07:09:59.616Z,4.40
2018-08-06T07:12:29.909Z,4.12
2018-08-06T07:14:59.520Z,4.35
2018-08-06T07:17:29.130Z,4.10
2018-08-06T07:20:00.219Z,3.75
2018-08-06T07:22:30.560Z,3.87
2018-08-06T07:25:00.456Z,4.37
2018-08-06T07:27:30.109Z,4.28
2018-08-06T07:29:59.704Z,4.10
2018-08-06T07:32:29.415Z,4.30
2018-08-06T07:34:58.941Z,3.85
2018-08-06T07:37:30.123Z,5.80
2018-08-06T07:39:59.626Z,4.15
2018-08-06T07:42:29.281Z,4.25
2018-08-06T07:44:58.715Z,4.25
2018-08-06T07:47:29.615Z,3.90
2018-08-06T07:49:59.296Z,4.18
2018-08-06T07:52:29.726Z,4.43
2018-08-06T07:54:59.322Z,4.43
2018-08-06T07:57:28.824Z,4.50
2018-08-06T07:59:58.363Z,4.25
2018-08-06T08:02:28.895Z,5.00
2018-08-06T08:04:58.245Z,5.50
2018-08-06T08:07:27.673Z,4.90
2018-08-06T08:09:57.260Z,4.55
2018-08-06T08:12:26.703Z,4.82
2018-08-06T08:14:56.097Z,4.62
2018-08-06T08:17:25.849Z,4.50
2018-08-06T08:19:55.446Z,4.57
2018-08-06T08:22:25.213Z,4.80
2018-08-06T08:24:56.239Z,4.50
2018-08-06T08:27:25.815Z,4.32
2018-08-06T08:29:55.372Z,4.50
2018-08-06T08:32:24.807Z,4.12
2018-08-06T08:34:54.938Z,4.25
2018-08-06T08:37:23.991Z,4.72
2018-08-06T08:39:53.559Z,4.40
2018-08-06T08:42:23.155Z,4.10
2018-08-06T08:44:52.683Z,4.30
2018-08-06T08:47:22.004Z,4.53
2018-08-06T08:49:51.785Z,4.32
2018-08-06T08:52:22.128Z,4.20
2018-08-06T08:54:51.850Z,4.30
2018-08-06T08:57:21.372Z,4.72
2018-08-06T08:59:50.936Z,4.20
2018-08-06T09:02:20.693Z,4.28
2018-08-06T09:04:52.017Z,4.50
2018-08-06T09:07:21.542Z,4.55
2018-08-06T09:09:52.093Z,4.45
2018-08-06T09:12:21.474Z,4.45
2018-08-06T09:14:51.043Z,4.90
2018-08-06T09:17:21.176Z,4.90
2018-08-06T09:19:50.623Z,4.60
2018-08-06T09:22:19.833Z,4.62
2018-08-06T09:24:49.735Z,4.60
2018-08-06T09:27:18.616Z,4.97
2018-08-06T09:29:48.142Z,5.32
2018-08-06T09:32:17.589Z,5.53
2018-08-06T09:34:47.049Z,4.90
2018-08-06T09:37:16.770Z,4.95
2018-08-06T09:39:46.141Z,4.50
2018-08-06T09:42:15.392Z,5.25
2018-08-06T09:44:46.072Z,5.03
2018-08-06T09:47:15.551Z,5.35
2018-08-06T09:49:45.074Z,5.50
2018-08-06T09:52:14.365Z,5.18
2018-08-06T09:54:43.983Z,5.68
2018-08-06T09:57:14.443Z,5.82
2018-08-06T09:59:44.731Z,5.45
2018-08-06T10:02:15.064Z,5.62
2018-08-06T10:04:44.467Z,5.43
2018-08-06T10:07:13.744Z,5.40
2018-08-06T10:09:43.568Z,5.68
2018-08-06T10:12:12.956Z,5.30
2018-08-06T10:14:42.493Z,6.22
2018-08-06T10:17:12.840Z,5.40
2018-08-06T10:19:42.475Z,5.47
2018-08-06T10:22:12.124Z,5.60
2018-08-06T10:24:41.682Z,6.00
2018-08-06T10:27:11.296Z,5.75
2018-08-06T10:29:40.832Z,5.55
2018-08-06T10:32:10.443Z,5.30
2018-08-06T10:34:39.695Z,6.10
2018-08-06T10:37:09.496Z,5.80
2018-08-06T10:39:38.957Z,5.28
2018-08-06T10:42:08.592Z,5.30
2018-08-06T10:44:38.525Z,5.35
2018-08-06T10:47:08.085Z,5.05
2018-08-06T10:49:37.356Z,4.95
2018-08-06T10:52:07.004Z,5.28
2018-08-06T10:54:36.486Z,5.45
2018-08-06T10:57:07.405Z,5.45
2018-08-06T10:59:37.059Z,4.90
2018-08-06T11:02:07.414Z,5.22
2018-08-06T11:04:38.600Z,5.60
2018-08-06T11:07:08.009Z,5.72
2018-08-06T11:09:37.474Z,5.40
2018-08-06T11:12:07.647Z,6.18
2018-08-06T11:14:37.170Z,5.75
2018-08-06T11:17:06.807Z,5.50
2018-08-06T11:19:36.289Z,5.40
2018-08-06T11:22:05.626Z,5.55
2018-08-06T11:24:35.092Z,5.53
2018-08-06T11:27:04.501Z,5.62
2018-08-06T11:29:35.169Z,5.68
2018-08-06T11:32:04.647Z,5.78
2018-08-06T11:34:34.737Z,5.70
2018-08-06T11:37:04.216Z,5.65
2018-08-06T11:39:35.431Z,5.68
2018-08-06T11:42:05.356Z,5.50
2018-08-06T11:44:35.044Z,5.57
2018-08-06T11:47:04.544Z,5.65
2018-08-06T11:49:33.791Z,5.50
2018-08-06T11:52:03.872Z,5.18
2018-08-06T11:54:33.227Z,5.70
2018-08-06T11:57:02.980Z,5.62
2018-08-06T11:59:32.487Z,5.85
2018-08-06T12:02:03.094Z,5.43
2018-08-06T12:04:33.236Z,5.35
2018-08-06T12:07:02.615Z,5.62
2018-08-06T12:09:32.160Z,5.55
2018-08-06T12:12:02.479Z,5.85
2018-08-06T12:14:32.509Z,5.60
2018-08-06T12:17:02.494Z,5.35
2018-08-06T12:19:32.277Z,5.57
2018-08-06T12:22:02.236Z,5.53
2018-08-06T12:24:32.833Z,5.62
2018-08-06T12:27:03.195Z,5.72
2018-08-06T12:29:32.684Z,5.07
2018-08-06T12:32:10.793Z,5.35
2018-08-06T12:34:41.518Z,5.15
2018-08-06T12:37:11.233Z,5.37
2018-08-06T12:39:40.812Z,5.40
2018-08-06T12:42:10.151Z,5.50
2018-08-06T12:44:39.714Z,5.20
2018-08-06T12:47:09.070Z,5.50
2018-08-06T12:49:39.731Z,5.60
2018-08-06T12:52:09.134Z,5.62
2018-08-06T12:54:38.382Z,5.93
2018-08-06T12:57:07.957Z,5.60
2018-08-06T12:59:37.533Z,5.47
2018-08-06T13:02:07.372Z,5.78
2018-08-06T13:04:36.578Z,5.43
2018-08-06T13:07:06.148Z,5.50
2018-08-06T13:09:35.698Z,5.53
2018-08-06T13:12:05.786Z,5.87
2018-08-06T13:14:35.818Z,5.68
2018-08-06T13:17:05.536Z,5.28
2018-08-06T13:19:35.276Z,5.43
2018-08-06T13:22:04.632Z,5.55
2018-08-06T13:24:34.252Z,5.30
2018-08-06T13:27:03.892Z,5.03
2018-08-06T13:29:33.871Z,5.20
2018-08-06T13:32:04.628Z,4.82
2018-08-06T13:34:34.880Z,5.10
2018-08-06T13:37:04.923Z,4.70
2018-08-06T13:39:35.377Z,4.93
2018-08-06T13:42:06.035Z,5.00
2018-08-06T13:44:35.635Z,4.68
2018-08-06T13:47:05.380Z,4.70
2018-08-06T13:49:35.053Z,4.78
2018-08-06T13:52:04.616Z,4.97
2018-08-06T13:54:34.184Z,5.20
2018-08-06T13:57:03.480Z,5.10
2018-08-06T13:59:33.526Z,5.75
2018-08-06T14:02:04.593Z,4.87
2018-08-06T14:04:34.994Z,5.35
2018-08-06T14:07:04.605Z,5.35
2018-08-06T14:09:33.864Z,5.03
2018-08-06T14:12:03.255Z,5.20
2018-08-06T14:14:34.420Z,5.05
2018-08-06T14:17:04.839Z,5.03
2018-08-06T14:19:34.343Z,4.93
2018-08-06T14:22:04.333Z,4.75
2018-08-06T14:24:33.995Z,5.40
2018-08-06T14:27:03.481Z,4.80
2018-08-06T14:29:34.987Z,4.97
2018-08-06T14:32:04.587Z,4.30
2018-08-06T14:34:34.156Z,5.05
2018-08-06T14:37:03.651Z,4.70
2018-08-06T14:39:33.389Z,4.40
2018-08-06T14:42:02.971Z,3.95
2018-08-06T14:44:32.552Z,4.20
2018-08-06T14:47:02.784Z,4.55
2018-08-06T14:49:33.049Z,3.95
2018-08-06T14:52:03.400Z,4.18
2018-08-06T14:54:33.574Z,3.95
2018-08-06T14:57:03.411Z,4.72
2018-08-06T14:59:33.554Z,5.43
2018-08-06T15:02:03.081Z,5.32
2018-08-06T15:04:32.720Z,5.28
2018-08-06T15:07:02.204Z,5.30
2018-08-06T15:09:31.956Z,5.22
2018-08-06T15:12:02.567Z,5.12
2018-08-06T15:14:32.796Z,5.32
2018-08-06T15:17:02.318Z,5.70
2018-08-06T15:19:32.168Z,5.50
2018-08-06T15:22:01.827Z,5.18
2018-08-06T15:24:31.390Z,4.72
2018-08-06T15:27:00.814Z,5.25
2018-08-06T15:29:30.699Z,4.75
2018-08-06T15:32:02.922Z,4.68
2018-08-06T15:34:32.579Z,5.40
2018-08-06T15:37:02.130Z,4.90
2018-08-06T15:39:32.540Z,5.00
2018-08-06T15:42:01.867Z,5.03
2018-08-06T15:44:31.617Z,4.90
2018-08-06T15:47:02.118Z,4.97
2018-08-06T15:49:31.724Z,5.05
2018-08-06T15:52:01.474Z,5.25
2018-08-06T15:54:30.798Z,4.72
2018-08-06T15:57:00.284Z,5.07
2018-08-06T15:59:29.566Z,5.47
2018-08-06T16:01:59.109Z,4.75
2018-08-06T16:04:28.753Z,4.50
2018-08-06T16:06:58.519Z,4.70
2018-08-06T16:09:28.012Z,4.43
2018-08-06T16:11:57.313Z,4.50
2018-08-06T16:14:27.028Z,5.22
2018-08-06T16:16:58.894Z,6.47
2018-08-06T16:19:28.603Z,5.40
2018-08-06T16:21:58.536Z,4.70
2018-08-06T16:24:28.220Z,4.70
2018-08-06T16:26:57.514Z,4.60
2018-08-06T16:29:27.153Z,4.62
2018-08-06T16:31:57.783Z,4.10
2018-08-06T16:34:28.112Z,4.32
2018-08-06T16:36:58.604Z,4.35
2018-08-06T16:39:28.659Z,4.70
2018-08-06T16:41:58.258Z,4.70
2018-08-06T16:44:28.059Z,4.18
2018-08-06T16:46:58.989Z,4.07
2018-08-06T16:49:28.288Z,4.65
2018-08-06T16:51:57.767Z,4.60
2018-08-06T16:54:27.000Z,4.18
2018-08-06T16:56:57.089Z,4.43
2018-08-06T16:59:26.507Z,4.30
2018-08-06T17:01:55.909Z,4.60
2018-08-06T17:04:25.216Z,3.97
2018-08-06T17:06:55.039Z,4.43
2018-08-06T17:09:24.623Z,4.53
2018-08-06T17:11:54.049Z,4.72
2018-08-06T17:14:24.751Z,4.60
2018-08-06T17:16:54.470Z,5.15
2018-08-06T17:19:24.049Z,4.40
2018-08-06T17:21:53.329Z,4.25
2018-08-06T17:24:23.573Z,4.57
2018-08-06T17:26:54.314Z,4.18
2018-08-06T17:29:24.738Z,4.30
2018-08-06T17:31:55.174Z,4.32
2018-08-06T17:34:25.767Z,4.15
2018-08-06T17:36:55.382Z,3.90
2018-08-06T17:39:25.040Z,4.00
2018-08-06T17:41:54.562Z,4.30
2018-08-06T17:44:24.854Z,3.60
2018-08-06T17:46:54.298Z,3.45
2018-08-06T17:49:25.860Z,4.20
2018-08-06T17:51:55.454Z,4.10
2018-08-06T17:54:24.848Z,4.10
2018-08-06T17:56:54.320Z,3.90
2018-08-06T17:59:23.907Z,4.00
2018-08-06T18:01:53.748Z,3.58
2018-08-06T18:04:24.004Z,3.83
2018-08-06T18:06:53.999Z,4.12
2018-08-06T18:09:24.815Z,3.70
2018-08-06T18:11:54.458Z,4.12
2018-08-06T18:14:24.029Z,4.10
2018-08-06T18:16:53.452Z,3.67
2018-08-06T18:19:23.952Z,3.70
2018-08-06T18:21:53.387Z,3.58
2018-08-06T18:24:22.839Z,3.40
2018-08-06T18:26:52.684Z,3.33
2018-08-06T18:29:22.304Z,3.20
2018-08-06T18:31:52.039Z,3.30
2018-08-06T18:34:21.675Z,3.37
2018-08-06T18:36:51.296Z,3.60
2018-08-06T18:39:21.326Z,4.10
2018-08-06T18:41:50.926Z,3.80
2018-08-06T18:44:20.506Z,3.65
2018-08-06T18:46:49.824Z,3.53
2018-08-06T18:49:19.927Z,3.90
2018-08-06T18:51:49.369Z,3.67
2018-08-06T18:54:19.379Z,3.90
2018-08-06T18:56:48.927Z,3.47
2018-08-06T18:59:18.880Z,3.67
2018-08-06T19:01:48.782Z,3.65
2018-08-06T19:04:18.604Z,3.70
2018-08-06T19:06:48.916Z,3.33
2018-08-06T19:09:19.274Z,3.65
2018-08-06T19:11:49.328Z,3.30
2018-08-06T19:14:18.807Z,3.35
2018-08-06T19:16:48.440Z,3.30
2018-08-06T19:19:21.705Z,3.45
2018-08-06T19:21:51.417Z,3.72
2018-08-06T19:24:21.242Z,3.45
2018-08-06T19:26:50.574Z,3.85
2018-08-06T19:29:19.507Z,3.50
2018-08-06T19:31:50.207Z,3.80
2018-08-06T19:34:20.117Z,3.87
2018-08-06T19:36:52.617Z,4.40
2018-08-06T19:39:23.017Z,4.32
2018-08-06T19:41:52.809Z,3.78
2018-08-06T19:44:22.097Z,3.92
2018-08-06T19:46:52.335Z,4.10
2018-08-06T19:49:23.709Z,4.15
2018-08-06T19:51:54.324Z,4.07
2018-08-06T19:54:24.344Z,4.25
2018-08-06T19:56:53.937Z,3.97
2018-08-06T19:59:24.069Z,4.10
2018-08-06T20:01:53.771Z,4.20
2018-08-06T20:04:23.635Z,4.65
2018-08-06T20:06:54.228Z,4.32
2018-08-06T20:09:23.532Z,4.12
2018-08-06T20:11:53.029Z,4.28
2018-08-06T20:14:22.580Z,4.10
2018-08-06T20:16:52.600Z,3.58
2018-08-06T20:19:22.717Z,4.18
2018-08-06T20:21:53.093Z,4.40
2018-08-06T20:24:22.742Z,4.20
2018-08-06T20:26:52.400Z,3.97
2018-08-06T20:29:21.862Z,3.75
2018-08-06T20:31:51.447Z,3.62
2018-08-06T20:34:20.843Z,4.00
2018-08-06T20:36:50.938Z,3.83
2018-08-06T20:39:21.502Z,3.87
2018-08-06T20:41:51.930Z,3.80
2018-08-06T20:44:21.498Z,4.37
2018-08-06T20:46:51.102Z,4.20
2018-08-06T20:49:20.664Z,4.12
2018-08-06T20:51:50.073Z,4.43
2018-08-06T20:54:19.703Z,4.90
2018-08-06T20:56:50.082Z,4.97
2018-08-06T20:59:19.461Z,4.15
2018-08-06T21:01:48.764Z,4.10
2018-08-06T21:04:19.652Z,4.53
2018-08-06T21:06:50.200Z,4.30
2018-08-06T21:09:19.288Z,4.10
2018-08-06T21:11:48.846Z,4.00
2018-08-06T21:14:18.364Z,4.57
2018-08-06T21:16:47.700Z,4.55
2018-08-06T21:19:17.725Z,4.60
2018-08-06T21:21:47.344Z,4.32
2018-08-06T21:24:16.760Z,4.60
2018-08-06T21:26:46.383Z,4.00
2018-08-06T21:29:15.736Z,5.12
2018-08-06T21:31:46.689Z,4.87
2018-08-06T21:34:16.297Z,4.50
2018-08-06T21:36:46.590Z,4.22
2018-08-06T21:39:17.386Z,4.10
2018-08-06T21:41:47.038Z,4.15
2018-08-06T21:44:16.520Z,4.00
2018-08-06T21:46:46.105Z,4.30
2018-08-06T21:49:15.608Z,4.12
2018-08-06T21:51:45.153Z,4.37
2018-08-06T21:54:14.809Z,4.20
2018-08-06T21:56:45.094Z,3.70
2018-08-06T21:59:15.915Z,4.40
2018-08-06T22:01:45.833Z,4.10
2018-08-06T22:04:16.012Z,3.90
2018-08-06T22:06:45.603Z,4.32
2018-08-06T22:09:15.187Z,4.32
2018-08-06T22:11:44.957Z,4.12
2018-08-06T22:14:14.278Z,4.45
2018-08-06T22:16:43.969Z,3.90
2018-08-06T22:19:15.400Z,4.12
2018-08-06T22:21:45.338Z,3.90
2018-08-06T22:24:16.421Z,3.90
2018-08-06T22:26:46.220Z,4.05
2018-08-06T22:29:16.578Z,4.05
2018-08-06T22:31:47.489Z,3.90
2018-08-06T22:34:16.856Z,3.92
2018-08-06T22:36:46.147Z,4.05
2018-08-06T22:39:15.591Z,3.58
2018-08-06T22:41:45.257Z,3.70
2018-08-06T22:44:14.697Z,3.90
2018-08-06T22:46:44.786Z,3.70
2018-08-06T22:49:14.479Z,3.70
2018-08-06T22:51:43.968Z,2.90
2018-08-06T22:54:13.628Z,3.03
2018-08-06T22:56:43.482Z,3.08
2018-08-06T22:59:13.235Z,3.37
2018-08-06T23:01:42.739Z,3.78
2018-08-06T23:04:13.107Z,3.50
2018-08-06T23:06:42.364Z,4.97
2018-08-06T23:09:12.354Z,3.00
2018-08-06T23:11:42.608Z,2.80
2018-08-06T23:14:12.546Z,3.20
2018-08-06T23:16:42.306Z,3.00
2018-08-06T23:19:12.395Z,2.87
2018-08-06T23:21:42.627Z,3.37
2018-08-06T23:24:12.397Z,2.90
2018-08-06T23:26:41.584Z,3.20
2018-08-06T23:29:12.345Z,3.62
2018-08-06T23:31:41.656Z,3.50
2018-08-06T23:34:12.568Z,3.22
2018-08-06T23:36:42.083Z,2.80
2018-08-06T23:39:11.590Z,2.67
2018-08-06T23:41:41.829Z,2.75
2018-08-06T23:44:11.891Z,2.65
2018-08-06T23:46:42.590Z,2.60
2018-08-06T23:49:12.000Z,2.90
2018-08-06T23:51:42.383Z,2.83
2018-08-06T23:54:12.527Z,3.00
2018-08-06T23:56:42.037Z,2.30
2018-08-06T23:59:12.954Z,2.83
